Time;durP1;ratioP1;P1;durP2;ratioP2;P2;SDS_P1;SDS_P2;PMS_P1;PMS_P2;Temp;Humidity;BMP_temperature;BMP_pressure;BME280_temperature;BME280_humidity;BME280_pressure;Samples;Min_cycle;Max_cycle;Signal;HPM_P1;HPM_P2
2022/06/21 07:31:57;;;;;;;6.45;1.82;;;;;;;27.57;36.79;98891.41;1712998;82;21736;-40
2022/06/21 07:34:49;;;;;;;4.12;1.60;;;;;;;27.62;36.87;98880.74;1606078;89;21370;-47
2022/06/21 07:37:23;;;;;;;5.60;1.82;;;;;;;27.67;37.63;98883.86;1639516;86;21646;-46
2022/06/21 07:39:54;;;;;;;6.08;2.40;;;;;;;27.73;37.10;98886.84;1640700;86;21254;-47
2022/06/21 07:42:28;;;;;;;30.82;2.83;;;;;;;27.73;35.78;98880.13;1613445;87;21162;-44
2022/06/21 07:45:14;;;;;;;17.05;2.45;;;;;;;27.76;36.86;98883.86;1686197;85;21071;-40
2022/06/21 07:47:51;;;;;;;4.83;1.75;;;;;;;27.85;35.38;98892.91;1664658;85;21092;-40
2022/06/21 07:50:25;;;;;;;9.70;2.30;;;;;;;27.92;35.51;98885.12;1663231;86;21053;-41
2022/06/21 07:52:58;;;;;;;5.65;2.02;;;;;;;27.96;36.11;98890.56;1663871;85;21093;-47
2022/06/21 07:55:41;;;;;;;;;;;;;;;27.97;35.03;98882.35;1637557;86;21045;-47
2022/06/21 07:58:17;;;;;;;20.02;3.35;;;;;;;28.02;35.50;98875.20;1653746;86;20404;-41
2022/06/21 08:09:26;;;;;;;13.00;1.85;;;;;;;28.44;35.08;98878.35;1613359;87;20990;-48
2022/06/21 08:11:55;;;;;;;9.03;2.42;;;;;;;28.48;34.44;98884.30;1622502;86;21045;-48
2022/06/21 08:14:22;;;;;;;7.08;1.85;;;;;;;28.47;34.11;98877.20;1614018;87;21617;-48
2022/06/21 08:17:09;;;;;;;1.98;1.30;;;;;;;28.47;33.97;98871.34;1615300;86;21624;-47
2022/06/21 08:19:47;;;;;;;4.33;1.27;;;;;;;28.49;33.69;98881.95;1609615;87;21454;-48
2022/06/21 08:22:22;;;;;;;6.95;1.60;;;;;;;28.58;33.29;98876.50;1604807;87;21090;-48
2022/06/21 08:24:58;;;;;;;4.00;1.42;;;;;;;28.69;33.45;98877.31;1602123;89;21013;-48
2022/06/21 08:27:52;;;;;;;13.18;3.15;;;;;;;28.76;31.81;98867.64;1597404;87;21138;-48
2022/06/21 08:30:30;;;;;;;7.83;2.05;;;;;;;28.74;31.24;98864.27;1603054;87;21031;-42
2022/06/21 08:33:05;;;;;;;4.87;1.85;;;;;;;28.68;31.84;98852.76;1583161;88;21072;-42
2022/06/21 08:35:52;;;;;;;12.85;2.17;;;;;;;28.73;31.73;98858.54;1600972;87;21792;-48
2022/06/21 08:38:46;;;;;;;4.62;1.75;;;;;;;28.79;31.37;98860.13;1611382;87;21569;-48
2022/06/21 08:41:55;;;;;;;3.42;2.12;;;;;;;28.82;30.91;98859.00;1560463;89;21042;-48
2022/06/21 08:45:40;;;;;;;27.13;5.45;;;;;;;28.82;30.40;98856.31;1553916;90;21065;-48
2022/06/21 08:47:43;;;;;;;4.60;1.47;;;;;;;28.90;31.06;98851.84;1548872;91;21044;-43
2022/06/21 08:50:43;;;;;;;8.33;1.30;;;;;;;28.93;29.37;98850.72;1587355;89;21033;-48
2022/06/21 08:53:35;;;;;;;1.42;1.20;;;;;;;28.97;29.41;98847.23;1584586;89;21145;-41
2022/06/21 08:56:17;;;;;;;8.63;1.47;;;;;;;29.02;29.41;98832.83;1579758;91;21077;-41
2022/06/21 08:58:54;;;;;;;5.97;1.55;;;;;;;29.03;29.78;98838.05;1581483;89;21627;-41
2022/06/21 09:01:33;;;;;;;4.33;1.40;;;;;;;29.11;30.04;98838.66;1578154;89;21028;-48
2022/06/21 09:04:18;;;;;;;15.32;2.12;;;;;;;29.21;29.36;98831.83;1573351;89;21663;-48
2022/06/21 09:07:06;;;;;;;3.42;1.22;;;;;;;29.30;29.52;98822.84;1584695;89;21302;-42
2022/06/21 09:09:44;;;;;;;14.93;1.12;;;;;;;29.37;28.41;98815.31;1547969;92;21571;-41
2022/06/21 09:12:27;;;;;;;6.08;1.30;;;;;;;29.40;28.62;98816.88;1541639;92;21626;-48
2022/06/21 09:15:35;;;;;;;2.92;2.62;;;;;;;29.41;29.16;98814.52;1557344;90;21039;-46
2022/06/21 09:18:26;;;;;;;1.77;1.00;;;;;;;29.45;29.54;98810.49;1584372;89;21696;-47
2022/06/21 09:21:27;;;;;;;2.60;0.90;;;;;;;29.48;28.87;98810.70;1583163;89;21079;-48
2022/06/21 09:24:01;;;;;;;3.25;1.20;;;;;;;29.52;28.61;98809.39;1580022;90;21005;-47
2022/06/21 09:26:57;;;;;;;5.30;1.22;;;;;;;29.53;29.56;98813.30;1580803;89;21050;-42
2022/06/21 09:29:46;;;;;;;2.87;1.02;;;;;;;29.56;29.56;98802.20;1575325;89;21041;-47
2022/06/21 09:32:36;;;;;;;1.85;0.98;;;;;;;29.65;30.07;98792.34;1590539;89;21204;-47
2022/06/21 09:35:52;;;;;;;5.42;1.00;;;;;;;29.73;28.99;98800.97;1576934;89;21108;-42
2022/06/21 09:38:51;;;;;;;1.22;1.12;;;;;;;29.66;27.58;98793.52;1571195;89;21071;-43
2022/06/21 09:41:44;;;;;;;2.77;1.25;;;;;;;29.70;27.62;98785.98;1570867;91;20996;-43
2022/06/21 09:44:48;;;;;;;2.15;1.10;;;;;;;29.72;28.77;98796.09;1555780;89;21515;-48
2022/06/21 09:47:30;;;;;;;7.10;1.20;;;;;;;29.73;28.53;98787.00;1646439;85;21075;-47
2022/06/21 09:50:09;;;;;;;7.22;1.35;;;;;;;29.75;29.18;98799.83;1638049;85;21429;-48
2022/06/21 09:52:56;;;;;;;6.17;1.00;;;;;;;29.82;26.85;98791.45;1632010;85;21073;-43
2022/06/21 09:55:59;;;;;;;7.10;1.35;;;;;;;29.86;27.56;98782.52;1641473;85;21589;-47
2022/06/21 09:58:48;;;;;;;4.25;1.05;;;;;;;29.88;27.40;98772.45;1649746;85;21095;-47
2022/06/21 10:01:27;;;;;;;13.05;1.37;;;;;;;29.85;27.72;98778.14;1648820;85;21046;-47
2022/06/21 10:04:02;;;;;;;7.17;1.22;;;;;;;29.86;27.91;98769.92;1621664;86;21571;-49
2022/06/21 10:07:00;;;;;;;6.00;1.10;;;;;;;29.88;28.29;98774.64;1639890;87;21072;-49
2022/06/21 10:09:51;;;;;;;2.72;1.30;;;;;;;29.84;28.65;98759.78;1651065;85;21032;-50
2022/06/21 10:12:35;;;;;;;5.53;1.70;;;;;;;29.88;29.22;98753.58;1629663;85;21135;-42
2022/06/21 10:15:40;;;;;;;2.00;1.37;;;;;;;29.93;28.24;98766.08;1654763;86;21061;-48
2022/06/21 10:18:24;;;;;;;13.30;1.60;;;;;;;29.94;28.37;98761.87;1576420;91;21125;-42
2022/06/21 10:21:16;;;;;;;3.35;1.42;;;;;;;29.92;28.48;98746.88;1571014;89;21094;-43
2022/06/21 10:24:00;;;;;;;7.00;1.30;;;;;;;29.88;28.32;98744.98;1570759;89;21652;-48
2022/06/21 10:26:46;;;;;;;2.15;1.10;;;;;;;29.89;28.00;98752.57;1555222;90;21514;-49
2022/06/21 10:29:29;;;;;;;9.05;1.50;;;;;;;29.93;27.30;98743.17;1574511;91;21101;-44
2022/06/21 10:32:09;;;;;;;3.15;1.20;;;;;;;30.03;25.92;98738.98;1577359;89;21462;-49
2022/06/21 10:35:04;;;;;;;5.70;1.40;;;;;;;30.18;25.66;98740.95;1574583;89;21684;-47
2022/06/21 10:37:36;;;;;;;2.33;1.05;;;;;;;30.32;26.28;98737.28;1575047;89;21152;-42
2022/06/21 10:40:22;;;;;;;;;;;;;;;30.50;26.09;98724.55;1584034;89;21107;-42
2022/06/21 10:43:28;;;;;;;4.60;1.35;;;;;;;30.69;26.38;98728.83;1574630;90;20121;-48
2022/06/21 10:45:59;;;;;;;5.75;1.15;;;;;;;30.85;25.62;98733.42;1583145;90;21066;-45
2022/06/21 10:48:56;;;;;;;4.42;1.95;;;;;;;30.82;24.54;98720.24;1588053;89;21631;-43
2022/06/21 10:51:53;;;;;;;8.15;1.50;;;;;;;30.76;25.30;98715.00;1583787;89;21512;-50
2022/06/21 10:55:03;;;;;;;2.75;1.12;;;;;;;30.76;26.08;98716.35;1588937;88;21502;-44
2022/06/21 10:58:01;;;;;;;4.45;1.37;;;;;;;30.96;25.84;98708.77;1631092;86;21081;-43
2022/06/21 11:04:08;;;;;;;4.72;1.60;;;;;;;31.09;24.95;98699.67;1619772;86;21119;-43
2022/06/21 11:07:13;;;;;;;3.55;1.60;;;;;;;31.15;24.97;98696.30;1626473;86;21935;-49
2022/06/21 11:09:57;;;;;;;5.05;1.12;;;;;;;31.21;24.97;98715.03;1592304;88;21121;-49
2022/06/21 11:12:56;;;;;;;1.70;1.15;;;;;;;31.28;25.34;98704.42;1626693;86;21156;-43
2022/06/21 11:15:43;;;;;;;3.47;1.20;;;;;;;31.42;24.62;98694.25;1620929;88;21040;-49
2022/06/21 11:19:02;;;;;;;4.30;1.40;;;;;;;31.52;24.50;98689.52;1622649;86;21033;-50
2022/06/21 11:21:59;;;;;;;3.37;1.27;;;;;;;31.51;24.31;98680.56;1589437;89;20996;-49
2022/06/21 11:24:47;;;;;;;1.55;0.93;;;;;;;31.38;25.45;98672.16;1621018;86;21484;-49
2022/06/21 11:27:40;;;;;;;3.90;1.30;;;;;;;31.32;25.85;98676.91;1618137;88;21150;-42
2022/06/21 11:30:37;;;;;;;6.28;1.20;;;;;;;31.27;24.83;98665.77;1619317;88;21030;-49
2022/06/21 11:33:18;;;;;;;4.05;1.30;;;;;;;31.17;25.51;98674.52;1635142;86;21073;-49
2022/06/21 11:36:13;;;;;;;4.15;1.10;;;;;;;31.08;26.32;98666.06;1633049;88;21018;-49
2022/06/21 11:38:54;;;;;;;4.45;1.02;;;;;;;31.08;26.48;98666.94;1650351;85;21116;-49
2022/06/21 11:42:06;;;;;;;4.28;1.17;;;;;;;31.08;25.73;98660.19;1658398;86;21021;-42
2022/06/21 11:44:39;;;;;;;5.40;2.22;;;;;;;31.03;26.39;98651.75;1662566;85;21549;-41
2022/06/21 11:47:14;;;;;;;4.05;1.10;;;;;;;31.03;25.97;98669.81;1663398;86;21101;-48
2022/06/21 11:50:19;;;;;;;5.37;1.20;;;;;;;30.97;26.44;98669.47;1653374;86;21056;-48
2022/06/21 11:53:18;;;;;;;2.83;1.35;;;;;;;30.92;25.83;98650.23;1641886;85;21059;-48
2022/06/21 11:56:08;;;;;;;8.80;1.27;;;;;;;30.80;26.41;98642.14;1663139;86;21076;-49
2022/06/21 11:59:04;;;;;;;6.45;1.70;;;;;;;30.78;26.20;98640.09;1663237;86;21583;-41
2022/06/21 12:01:51;;;;;;;4.80;1.35;;;;;;;30.75;26.34;98639.10;1654526;86;21021;-48
2022/06/21 12:04:35;;;;;;;2.83;1.10;;;;;;;30.66;26.62;98633.31;1593892;87;21081;-48
2022/06/21 12:07:29;;;;;;;8.15;1.22;;;;;;;30.61;27.38;98623.02;1596084;89;21700;-48
2022/06/21 12:10:20;;;;;;;10.82;1.45;;;;;;;30.65;26.50;98628.42;1579518;91;21525;-42
2022/06/21 12:13:19;;;;;;;1.67;1.10;;;;;;;30.73;26.19;98626.26;1597657;87;21115;-41
2022/06/21 12:16:19;;;;;;;4.30;1.02;;;;;;;30.76;25.72;98621.89;1604719;89;21141;-49
2022/06/21 12:18:52;;;;;;;4.50;1.40;;;;;;;30.76;25.74;98629.14;1597412;89;21105;-49
2022/06/21 12:21:29;;;;;;;1.60;1.05;;;;;;;30.73;25.71;98610.06;1592531;90;21097;-49
2022/06/21 12:24:00;;;;;;;1.47;1.10;;;;;;;30.77;25.46;98603.33;1593557;89;21080;-42
2022/06/21 12:26:28;;;;;;;2.87;1.02;;;;;;;30.77;25.44;98596.58;1593734;89;21069;-42
2022/06/21 12:28:58;;;;;;;8.15;1.20;;;;;;;30.77;26.01;98591.69;1593459;89;21093;-49
2022/06/21 12:31:28;;;;;;;3.95;1.10;;;;;;;30.82;26.67;98617.16;1593710;89;21118;-48
2022/06/21 12:34:17;;;;;;;1.62;1.00;;;;;;;30.92;24.84;98588.14;1592959;89;21151;-49
2022/06/21 12:36:48;;;;;;;2.65;1.20;;;;;;;31.04;24.38;98590.48;1604681;89;21205;-42
2022/06/21 12:39:26;;;;;;;3.55;1.15;;;;;;;31.12;24.29;98585.06;1609272;86;21149;-42
2022/06/21 12:42:07;;;;;;;5.80;1.30;;;;;;;31.17;24.30;98582.18;1646968;86;21045;-42
2022/06/21 12:45:01;;;;;;;2.33;1.10;;;;;;;31.22;24.48;98570.87;1649063;86;21069;-42
2022/06/21 12:47:48;;;;;;;4.12;1.20;;;;;;;31.32;24.17;98589.11;1650310;86;21600;-42
2022/06/21 12:50:40;;;;;;;7.55;1.00;;;;;;;31.28;24.57;98574.77;1651830;86;21084;-49
2022/06/21 12:53:43;;;;;;;4.62;1.07;;;;;;;31.34;24.77;98578.13;1656781;86;21163;-43
2022/06/21 12:56:31;;;;;;;6.53;1.30;;;;;;;31.37;24.68;98574.58;1663689;86;21532;-42
2022/06/21 12:59:26;;;;;;;3.30;0.93;;;;;;;31.35;25.31;98564.95;1633378;88;21097;-48
2022/06/21 13:02:17;;;;;;;1.42;1.10;;;;;;;31.40;24.17;98569.31;1663562;86;21580;-42
2022/06/21 13:04:52;;;;;;;1.10;1.00;;;;;;;31.38;24.31;98574.06;1663346;86;21101;-49
2022/06/21 13:07:35;;;;;;;4.65;1.40;;;;;;;31.38;24.25;98572.20;1632981;88;21104;-42
2022/06/21 13:10:20;;;;;;;4.62;1.52;;;;;;;31.42;23.31;98579.44;1621564;88;21075;-43
2022/06/21 13:13:28;;;;;;;6.33;0.93;;;;;;;31.37;23.06;98563.77;1622724;87;21086;-42
2022/06/21 13:16:29;;;;;;;3.17;1.02;;;;;;;31.38;22.92;98565.45;1627445;88;21109;-50
2022/06/21 13:19:25;;;;;;;3.27;1.22;;;;;;;31.45;22.50;98571.83;1623204;87;21703;-43
2022/06/21 13:22:20;;;;;;;4.05;1.22;;;;;;;31.52;22.69;98562.52;1616659;88;21102;-50
2022/06/21 13:25:13;;;;;;;2.62;1.20;;;;;;;31.62;22.99;98560.45;1607696;89;21068;-49
